Time;durP1;ratioP1;P1;durP2;ratioP2;P2;SDS_P1;SDS_P2;PMS_P1;PMS_P2;Temp;Humidity;BMP_temperature;BMP_pressure;BME280_temperature;BME280_humidity;BME280_pressure;Samples;Min_cycle;Max_cycle;Signal;HPM_P1;HPM_P2
2022/04/25 00:01:18;;;;;;;15.23;5.40;;;16.50;85.60;;;16.80;56.51;94286.59;5057180;28;21057;-56
2022/04/25 00:03:45;;;;;;;24.30;5.60;;;16.50;85.70;;;16.78;56.86;94278.81;5057046;28;20473;-56
2022/04/25 00:06:13;;;;;;;14.40;5.27;;;16.50;85.90;;;16.77;57.14;94285.16;5058047;28;20498;-55
2022/04/25 00:08:40;;;;;;;18.53;5.40;;;16.50;86.40;;;16.76;56.66;94290.66;5060262;28;20839;-55
2022/04/25 00:11:07;;;;;;;17.53;6.17;;;16.50;86.10;;;16.74;57.14;94296.16;5054492;28;20505;-56
2022/04/25 00:13:34;;;;;;;22.03;5.40;;;16.50;86.00;;;16.70;57.03;94292.25;5056592;28;20954;-57
2022/04/25 00:16:03;;;;;;;31.07;6.17;;;16.40;86.30;;;16.68;56.88;94294.25;5052761;28;20495;-57
2022/04/25 00:18:32;;;;;;;22.10;4.67;;;16.40;86.20;;;16.63;56.76;94292.19;5056989;28;20486;-56
2022/04/25 00:21:00;;;;;;;32.23;6.57;;;16.40;85.60;;;16.59;56.30;94279.47;5050916;28;20483;-57
2022/04/25 00:23:27;;;;;;;15.23;4.50;;;16.30;85.50;;;16.58;56.91;94289.28;5054000;28;20460;-56
2022/04/25 00:25:55;;;;;;;21.03;6.57;;;16.30;86.00;;;16.56;56.71;94288.66;5058646;28;20471;-54
2022/04/25 00:28:22;;;;;;;18.27;6.00;;;16.30;86.10;;;16.55;56.66;94296.81;5055494;28;20927;-54
2022/04/25 00:30:49;;;;;;;23.67;5.23;;;16.30;85.90;;;16.52;57.03;94278.63;5055052;28;21031;-56
2022/04/25 00:33:16;;;;;;;17.83;6.00;;;16.30;86.40;;;16.53;56.54;94280.25;5055197;28;21100;-56
2022/04/25 00:35:45;;;;;;;27.97;5.47;;;16.30;86.50;;;16.51;56.85;94284.94;5055418;28;21191;-54
2022/04/25 00:38:12;;;;;;;25.47;5.50;;;16.20;86.30;;;16.49;56.85;94285.94;5055944;28;20986;-55
2022/04/25 00:40:41;;;;;;;23.83;5.40;;;16.20;86.30;;;16.46;56.91;94275.69;5055660;28;20474;-54
2022/04/25 00:43:08;;;;;;;22.87;5.43;;;16.20;86.30;;;16.44;56.77;94284.88;5055224;28;20459;-55
2022/04/25 00:45:35;;;;;;;21.33;5.60;;;16.20;86.40;;;16.42;57.13;94279.75;5054780;28;20892;-55
2022/04/25 00:48:03;;;;;;;28.50;6.30;;;16.10;86.80;;;16.39;57.14;94280.16;5054394;28;20494;-56
2022/04/25 00:50:30;;;;;;;19.70;5.20;;;16.10;86.70;;;16.36;57.03;94277.88;5060291;28;20486;-55
2022/04/25 00:53:00;;;;;;;19.93;5.27;;;16.10;86.50;;;16.33;57.11;94272.09;5053939;28;20474;-56
2022/04/25 00:55:27;;;;;;;20.07;5.97;;;16.10;86.90;;;16.30;57.20;94270.66;5057843;28;20988;-53
2022/04/25 00:57:56;;;;;;;38.27;6.47;;;16.00;86.70;;;16.29;57.04;94263.69;5055476;28;20463;-56
2022/04/25 01:00:24;;;;;;;23.23;5.80;;;16.00;86.70;;;16.27;57.43;94265.75;5053143;28;20877;-55
2022/04/25 01:02:51;;;;;;;30.57;5.50;;;16.00;86.40;;;16.23;57.06;94253.84;5049416;28;20574;-55
2022/04/25 01:05:18;;;;;;;30.13;6.50;;;16.00;86.70;;;16.22;57.08;94253.03;5056812;28;20479;-56
2022/04/25 01:07:45;;;;;;;22.90;5.03;;;16.00;86.80;;;16.24;57.38;94252.84;5050825;28;20496;-56
2022/04/25 01:10:14;;;;;;;12.70;4.47;;;15.90;87.20;;;16.22;57.24;94247.72;5057104;28;20474;-57
2022/04/25 01:12:41;;;;;;;20.90;5.13;;;15.90;87.50;;;16.25;57.21;94241.19;5054669;28;20467;-55
2022/04/25 01:15:10;;;;;;;25.90;5.33;;;16.00;87.20;;;16.25;57.28;94235.91;5055058;28;20475;-55
2022/04/25 01:17:37;;;;;;;17.50;4.67;;;15.90;87.10;;;16.25;57.02;94236.75;5055991;28;20455;-55
2022/04/25 01:20:07;;;;;;;25.70;5.90;;;16.00;86.60;;;16.26;56.96;94235.72;5053609;28;21061;-55
2022/04/25 01:22:40;;;;;;;25.50;6.00;;;15.90;86.90;;;16.25;56.92;94223.47;5056341;28;20489;-58
2022/04/25 01:27:53;;;;;;;27.17;6.50;;;16.00;86.80;;;16.26;56.90;94222.44;5055913;28;20483;-56
2022/04/25 01:30:30;;;;;;;21.67;5.10;;;16.00;86.60;;;16.27;56.87;94217.97;5057014;28;20486;-56
2022/04/25 01:32:58;;;;;;;18.37;4.50;;;16.00;86.10;;;16.26;56.65;94224.28;5053947;28;20828;-55
2022/04/25 01:35:25;;;;;;;26.57;4.97;;;16.00;86.10;;;16.25;56.92;94222.63;5055435;28;20536;-55
2022/04/25 01:37:52;;;;;;;31.73;4.83;;;16.00;86.50;;;16.24;56.97;94228.97;5054756;28;20462;-56
2022/04/25 01:40:21;;;;;;;29.50;5.70;;;16.00;86.70;;;16.22;57.27;94230.97;5055483;28;20471;-56
2022/04/25 01:42:48;;;;;;;29.73;5.50;;;15.90;87.10;;;16.20;57.33;94227.69;5054120;28;20459;-55
2022/04/25 01:45:16;;;;;;;27.63;5.30;;;15.90;87.60;;;16.18;57.74;94233.19;5054338;28;20502;-55
2022/04/25 01:47:44;;;;;;;16.23;4.53;;;15.90;88.00;;;16.15;57.83;94225.59;5054341;28;20456;-55
2022/04/25 01:50:12;;;;;;;31.40;5.80;;;15.90;88.10;;;16.13;57.78;94231.09;5054755;28;20479;-55
2022/04/25 01:52:39;;;;;;;17.47;4.93;;;15.90;88.00;;;16.11;57.95;94227.84;5050778;28;20496;-56
2022/04/25 01:55:07;;;;;;;22.87;6.10;;;15.90;88.10;;;16.08;58.02;94208.78;5053880;28;20992;-55
2022/04/25 01:57:35;;;;;;;51.63;6.80;;;15.80;88.40;;;16.06;57.65;94206.34;5054288;28;20536;-55
2022/04/25 02:00:03;;;;;;;26.80;5.57;;;15.80;88.00;;;16.01;57.81;94203.44;5056011;28;20537;-55
2022/04/25 02:02:30;;;;;;;23.27;5.97;;;15.80;88.00;;;15.99;57.97;94201.97;5049003;28;20459;-56
2022/04/25 02:04:57;;;;;;;24.50;6.53;;;15.70;88.40;;;15.95;58.17;94185.63;5051768;28;20490;-56
2022/04/25 02:07:25;;;;;;;20.07;5.27;;;15.70;88.80;;;15.94;58.10;94194.59;5056090;28;20447;-56
2022/04/25 02:09:52;;;;;;;11.77;5.33;;;15.70;88.60;;;15.90;58.04;94202.13;5060266;28;20490;-56
2022/04/25 02:12:19;;;;;;;25.03;5.10;;;15.70;88.80;;;15.87;58.21;94196.38;5054473;28;21026;-55
2022/04/25 02:14:48;;;;;;;22.10;5.63;;;15.60;88.80;;;15.84;58.25;94200.22;5056357;28;20459;-56
2022/04/25 02:17:15;;;;;;;34.00;6.47;;;15.60;89.00;;;15.81;58.55;94197.94;5057021;28;20466;-55
2022/04/25 02:19:44;;;;;;;31.43;5.73;;;15.50;89.30;;;15.77;58.38;94202.81;5057676;28;20473;-54
2022/04/25 02:22:12;;;;;;;24.87;6.20;;;15.50;88.40;;;15.73;58.23;94203.34;5055456;28;20455;-54
2022/04/25 02:24:39;;;;;;;32.53;6.20;;;15.50;88.80;;;15.71;58.52;94208.84;5058977;28;20922;-56
2022/04/25 02:27:07;;;;;;;27.13;6.07;;;15.40;89.10;;;15.68;58.47;94206.56;5051263;28;20462;-56
2022/04/25 02:29:34;;;;;;;24.57;5.97;;;15.40;89.20;;;15.67;58.52;94212.84;5058852;28;20505;-55
2022/04/25 02:32:03;;;;;;;17.50;5.57;;;15.40;89.10;;;15.66;58.38;94211.25;5062442;28;20456;-56
2022/04/25 02:34:31;;;;;;;29.07;6.23;;;15.40;89.60;;;15.65;58.53;94209.59;5054763;28;20475;-54
2022/04/25 02:36:58;;;;;;;26.90;6.50;;;15.40;89.70;;;15.62;58.79;94206.50;5055374;28;20459;-54
2022/04/25 02:39:26;;;;;;;30.83;5.90;;;15.40;90.00;;;15.59;58.70;94197.06;5058672;28;20471;-56
2022/04/25 02:41:53;;;;;;;33.73;6.30;;;15.30;90.00;;;15.55;59.05;94187.84;5060224;28;20460;-55
2022/04/25 02:44:21;;;;;;;15.40;5.20;;;15.30;90.20;;;15.51;59.58;94182.09;5055217;28;20531;-56
2022/04/25 02:46:48;;;;;;;17.83;6.07;;;15.30;90.40;;;15.47;59.09;94174.72;5057841;28;20555;-57
2022/04/25 02:49:16;;;;;;;24.63;6.40;;;15.20;90.20;;;15.41;59.58;94169.16;5061466;28;20958;-56
2022/04/25 02:51:44;;;;;;;30.73;6.20;;;15.20;90.50;;;15.36;59.36;94157.47;5057164;28;20509;-56
2022/04/25 02:54:12;;;;;;;26.23;7.87;;;15.10;90.40;;;15.32;59.45;94166.78;5059138;28;20495;-55
2022/04/25 02:56:39;;;;;;;23.00;6.70;;;15.10;90.60;;;15.28;59.43;94171.66;5058997;28;20468;-55
2022/04/25 02:59:07;;;;;;;21.23;6.03;;;15.00;90.60;;;15.24;59.80;94170.38;5059585;28;20459;-56
2022/04/25 03:01:34;;;;;;;20.27;6.70;;;15.00;90.80;;;15.21;60.06;94174.22;5059727;28;20474;-54
2022/04/25 03:04:01;;;;;;;24.50;7.03;;;15.00;90.90;;;15.19;59.95;94180.72;5060059;28;20607;-56
2022/04/25 03:06:30;;;;;;;26.57;7.13;;;14.90;91.00;;;15.15;60.12;94182.09;5056943;28;20498;-56
2022/04/25 03:08:57;;;;;;;30.77;6.70;;;14.90;91.10;;;15.12;60.35;94172.69;5060805;28;20920;-56
2022/04/25 03:11:25;;;;;;;23.97;4.93;;;14.90;91.40;;;15.09;60.70;94182.81;5056887;28;20486;-54
2022/04/25 03:13:53;;;;;;;25.50;7.73;;;14.90;91.40;;;15.05;60.63;94180.53;5053645;28;20483;-54
2022/04/25 03:16:21;;;;;;;31.07;7.07;;;14.80;91.40;;;15.03;60.68;94182.56;5057384;28;20913;-55
2022/04/25 03:18:48;;;;;;;27.47;6.27;;;14.80;91.40;;;14.99;60.31;94183.91;5054159;28;20463;-54
2022/04/25 03:21:15;;;;;;;17.70;6.30;;;14.70;91.40;;;14.95;60.54;94182.66;5058740;28;20540;-55
2022/04/25 03:23:44;;;;;;;18.90;6.33;;;14.70;91.60;;;14.91;60.70;94194.63;5059990;28;20960;-55
2022/04/25 03:26:11;;;;;;;32.17;7.90;;;14.70;92.00;;;14.89;61.00;94191.34;5053567;28;20533;-55
2022/04/25 03:28:38;;;;;;;23.57;6.47;;;14.70;91.70;;;14.87;60.64;94188.03;5058641;28;21067;-56
2022/04/25 03:31:09;;;;;;;26.10;7.10;;;14.60;91.70;;;14.84;61.02;94186.59;5056240;28;20478;-56
2022/04/25 03:33:36;;;;;;;33.10;6.60;;;14.60;92.00;;;14.80;61.69;94195.91;5052200;28;20463;-56
2022/04/25 03:36:04;;;;;;;25.30;7.93;;;14.60;92.40;;;14.74;61.53;94204.56;5060640;28;20474;-58
2022/04/25 03:38:31;;;;;;;18.80;6.40;;;14.50;92.10;;;14.69;60.92;94210.41;5058379;28;20463;-56
2022/04/25 03:41:01;;;;;;;24.63;6.90;;;14.50;92.00;;;14.67;61.06;94215.06;5054991;28;20482;-55
2022/04/25 03:43:28;;;;;;;22.93;6.60;;;14.40;92.00;;;14.65;61.06;94209.13;5056636;28;20462;-56
2022/04/25 03:45:56;;;;;;;22.83;6.10;;;14.40;92.10;;;14.65;61.17;94217.06;5057151;28;20468;-55
2022/04/25 03:48:23;;;;;;;23.53;6.50;;;14.40;92.10;;;14.64;60.94;94219.88;5059828;28;21002;-56
2022/04/25 03:50:50;;;;;;;17.40;6.07;;;14.40;91.90;;;14.64;61.01;94220.72;5058163;28;20479;-56
2022/04/25 03:53:18;;;;;;;21.17;5.90;;;14.40;91.90;;;14.63;61.05;94210.31;5055123;28;20470;-55
2022/04/25 03:58:31;;;;;;;23.23;6.20;;;14.40;91.90;;;14.62;60.97;94217.41;5057245;28;20457;-56
2022/04/25 04:00:58;;;;;;;26.50;6.43;;;14.40;91.80;;;14.61;61.12;94223.72;5052801;28;20494;-56
2022/04/25 04:03:25;;;;;;;26.57;5.43;;;14.40;91.90;;;14.62;60.92;94235.13;5052379;28;20498;-54
2022/04/25 04:05:54;;;;;;;17.70;5.77;;;14.40;91.90;;;14.57;61.62;94217.13;5052052;28;20499;-56
2022/04/25 04:08:21;;;;;;;35.13;7.47;;;14.40;92.30;;;14.60;61.07;94222.06;5054570;28;20485;-56
2022/04/25 04:10:49;;;;;;;28.90;6.93;;;14.40;92.00;;;14.61;61.01;94234.31;5055924;28;20525;-55
2022/04/25 04:13:17;;;;;;;17.80;5.83;;;14.30;91.90;;;14.64;61.09;94219.88;5051571;28;20584;-56
2022/04/25 04:15:46;;;;;;;25.93;5.90;;;14.40;92.10;;;14.65;60.77;94225.00;5058382;28;20478;-55
2022/04/25 04:18:13;;;;;;;23.57;5.60;;;14.40;91.90;;;14.68;60.94;94218.53;5059280;28;20478;-56
2022/04/25 04:20:41;;;;;;;27.40;6.20;;;14.40;91.90;;;14.73;60.89;94231.22;5055318;28;20478;-55
2022/04/25 04:23:08;;;;;;;28.00;5.07;;;14.50;92.00;;;14.77;60.67;94221.91;5054636;28;20951;-52
2022/04/25 04:25:36;;;;;;;37.03;6.43;;;14.50;91.70;;;14.81;60.24;94223.19;5053513;28;20532;-56
2022/04/25 04:28:06;;;;;;;17.10;5.40;;;14.50;91.50;;;14.85;60.31;94227.13;5059212;28;21223;-56
2022/04/25 04:30:33;;;;;;;25.77;6.40;;;14.60;91.60;;;14.90;60.19;94229.22;5058963;28;20544;-57
2022/04/25 04:33:02;;;;;;;18.30;6.27;;;14.60;91.40;;;14.95;60.43;94229.50;5054950;28;20466;-56
2022/04/25 04:38:14;;;;;;;36.00;6.40;;;14.70;91.40;;;15.01;60.55;94236.72;5060341;28;20476;-56
2022/04/25 04:40:41;;;;;;;20.70;5.53;;;14.70;91.70;;;15.05;60.15;94252.03;5058683;28;20871;-55
2022/04/25 04:43:08;;;;;;;31.03;5.43;;;14.80;91.40;;;15.08;60.10;94242.13;5056690;28;21020;-54
2022/04/25 04:45:35;;;;;;;22.83;5.97;;;14.80;91.40;;;15.18;59.85;94246.13;5054944;28;20478;-53
2022/04/25 04:48:05;;;;;;;28.97;7.30;;;14.90;91.40;;;15.26;59.75;94263.75;5052355;28;20456;-55
2022/04/25 04:50:33;;;;;;;40.67;8.37;;;15.00;91.40;;;15.34;59.93;94255.69;5055146;28;20586;-55
2022/04/25 04:53:01;;;;;;;34.53;6.70;;;15.10;91.50;;;15.40;59.56;94260.25;5051375;28;20525;-56
2022/04/25 04:55:29;;;;;;;30.73;6.53;;;15.10;91.10;;;15.46;59.22;94285.22;5051852;28;20477;-56
2022/04/25 04:57:56;;;;;;;30.17;6.00;;;15.20;90.90;;;15.53;59.27;94258.78;5056742;28;20459;-56
2022/04/25 05:00:24;;;;;;;21.00;6.10;;;15.20;90.90;;;15.57;58.88;94282.09;5055426;28;21293;-57
2022/04/25 05:02:51;;;;;;;33.20;6.10;;;15.30;90.50;;;15.62;58.81;94288.69;5057912;28;20967;-56
2022/04/25 05:05:20;;;;;;;17.13;5.17;;;15.30;90.50;;;15.69;58.70;94266.53;5058662;28;20524;-57
2022/04/25 05:07:47;;;;;;;25.33;5.70;;;15.40;90.40;;;15.74;58.60;94282.69;5057420;28;20451;-56
2022/04/25 05:10:15;;;;;;;27.47;7.53;;;15.50;90.40;;;15.81;58.59;94279.34;5057115;28;20499;-57
2022/04/25 05:12:47;;;;;;;34.77;6.40;;;15.50;90.30;;;15.83;58.25;94288.72;5055564;28;20471;-55
2022/04/25 05:15:14;;;;;;;24.67;5.40;;;15.50;90.10;;;15.87;58.29;94286.53;5055910;28;20474;-54
2022/04/25 05:17:43;;;;;;;35.53;5.93;;;15.60;90.10;;;15.93;58.51;94289.25;5057010;28;20545;-56
2022/04/25 05:20:12;;;;;;;21.53;5.93;;;15.60;90.20;;;15.97;58.28;94284.41;5056701;28;20570;-57
2022/04/25 05:22:44;;;;;;;16.93;5.40;;;15.70;90.20;;;16.04;58.06;94287.13;5058154;28;20467;-56
2022/04/25 05:25:14;;;;;;;26.97;5.40;;;15.70;90.00;;;16.13;57.98;94289.47;5053673;28;20475;-56
2022/04/25 05:27:42;;;;;;;21.43;5.03;;;15.80;90.00;;;16.26;57.84;94283.47;5059840;28;20963;-55
2022/04/25 05:30:11;;;;;;;24.43;4.80;;;15.90;89.70;;;16.43;57.58;94288.53;5049585;28;20494;-55
2022/04/25 05:32:46;;;;;;;29.80;5.00;;;16.10;89.40;;;16.61;57.28;94288.91;5050599;28;20456;-56
2022/04/25 05:35:14;;;;;;;12.60;4.70;;;16.20;88.80;;;16.77;56.86;94289.66;5050918;28;20550;-55
2022/04/25 05:37:43;;;;;;;23.90;5.97;;;16.40;88.60;;;16.97;56.75;94284.50;5054076;28;20586;-56
2022/04/25 05:40:11;;;;;;;19.27;4.73;;;16.60;88.50;;;17.19;56.32;94288.72;5050412;28;20479;-55
2022/04/25 05:42:39;;;;;;;23.70;5.40;;;16.80;88.10;;;17.42;56.16;94290.31;5056230;28;20554;-55
2022/04/25 05:45:08;;;;;;;23.50;4.77;;;17.00;87.20;;;17.64;55.18;94287.53;5059518;28;20475;-56
2022/04/25 05:47:35;;;;;;;20.90;5.20;;;17.20;86.30;;;17.86;54.93;94297.06;5055550;28;21010;-54
2022/04/25 05:52:48;;;;;;;18.60;3.90;;;17.60;83.60;;;18.32;53.37;94300.09;5054920;28;20494;-55
2022/04/25 05:55:15;;;;;;;15.97;4.87;;;17.90;82.70;;;18.49;53.27;94301.34;5054401;28;20479;-55
2022/04/25 05:57:43;;;;;;;15.93;4.00;;;18.00;81.80;;;18.70;53.16;94299.50;5054545;28;20855;-56
2022/04/25 06:00:11;;;;;;;25.30;5.00;;;18.20;81.10;;;18.93;52.61;94305.31;5056353;28;20560;-57
2022/04/25 06:02:39;;;;;;;25.77;5.90;;;18.40;80.20;;;19.14;51.56;94298.91;5057150;28;20487;-55
2022/04/25 06:05:07;;;;;;;31.87;5.70;;;18.70;78.50;;;19.37;51.00;94286.19;5056925;28;20559;-57
2022/04/25 06:07:35;;;;;;;21.27;5.20;;;18.90;78.20;;;19.49;50.65;94274.66;5061417;28;20543;-56
2022/04/25 06:10:04;;;;;;;23.03;4.40;;;19.00;77.10;;;19.67;50.65;94273.16;5060274;28;20498;-56
2022/04/25 06:12:31;;;;;;;29.60;4.97;;;19.20;76.50;;;19.84;50.29;94268.19;5061792;28;20458;-56
2022/04/25 06:15:00;;;;;;;22.83;5.57;;;19.30;76.30;;;20.05;50.79;94270.56;5059905;28;20845;-57
2022/04/25 06:17:28;;;;;;;17.03;5.03;;;19.60;76.70;;;20.29;50.00;94275.34;5055673;28;20498;-56
2022/04/25 06:19:55;;;;;;;29.27;7.07;;;19.70;75.80;;;20.48;49.76;94273.59;5054848;28;20472;-54
2022/04/25 06:22:23;;;;;;;28.07;5.53;;;19.90;75.10;;;20.68;49.17;94282.34;5057719;28;21014;-57
2022/04/25 06:24:50;;;;;;;18.70;5.50;;;20.20;74.10;;;20.88;49.42;94278.66;5058905;28;20474;-55
2022/04/25 06:27:19;;;;;;;42.53;5.87;;;20.40;73.80;;;21.10;48.67;94279.91;5058451;28;20447;-57
2022/04/25 06:29:46;;;;;;;26.17;5.20;;;20.60;73.10;;;21.35;48.39;94286.25;5060133;28;20512;-55
2022/04/25 06:32:14;;;;;;;30.23;5.87;;;20.80;72.20;;;21.59;47.73;94288.09;5058135;28;20528;-57
2022/04/25 06:34:41;;;;;;;30.07;5.87;;;21.00;71.10;;;21.83;47.41;94291.75;5059348;28;20974;-57
2022/04/25 06:37:08;;;;;;;24.03;4.70;;;21.20;70.10;;;22.07;46.71;94286.50;5057435;28;20455;-56
2022/04/25 06:39:36;;;;;;;43.40;4.57;;;21.50;68.60;;;22.29;46.52;94281.50;5061574;28;21376;-55
2022/04/25 06:42:04;;;;;;;22.90;6.00;;;21.70;67.70;;;22.52;45.76;94274.59;5060100;28;20458;-57
2022/04/25 06:44:33;;;;;;;26.83;6.93;;;21.90;66.60;;;22.72;45.24;94263.56;5060543;28;20820;-57
2022/04/25 06:47:00;;;;;;;34.43;6.17;;;22.10;64.90;;;22.91;44.90;94273.19;5060445;28;20443;-57
2022/04/25 06:49:28;;;;;;;31.77;5.47;;;22.30;64.90;;;23.13;44.78;94271.81;5057836;28;20446;-58
2022/04/25 06:51:57;;;;;;;36.43;5.33;;;22.60;63.90;;;23.35;44.26;94272.06;5059407;28;21104;-57
2022/04/25 06:54:25;;;;;;;20.73;4.67;;;22.80;62.90;;;23.57;43.50;94265.03;5059617;28;20956;-57
2022/04/25 06:56:52;;;;;;;26.13;4.57;;;23.00;61.70;;;23.79;43.78;94261.72;5057748;28;20463;-57
2022/04/25 06:59:20;;;;;;;25.87;5.60;;;23.20;60.90;;;23.97;43.04;94261.59;5057258;28;20458;-56
2022/04/25 07:01:49;;;;;;;28.13;5.67;;;23.40;60.10;;;24.04;43.38;94269.50;5053258;28;20471;-57
2022/04/25 07:04:16;;;;;;;29.90;5.37;;;23.50;59.70;;;24.19;43.21;94265.50;5058021;28;20716;-57
2022/04/25 07:06:44;;;;;;;29.40;5.83;;;23.60;59.30;;;24.40;43.07;94259.44;5056172;28;20478;-57
2022/04/25 07:09:12;;;;;;;20.00;4.27;;;23.80;59.00;;;24.65;41.78;94264.50;5052022;28;20456;-58
2022/04/25 07:11:43;;;;;;;18.67;4.77;;;24.00;58.40;;;24.92;41.90;94263.03;5057746;28;20498;-54
2022/04/25 07:14:12;;;;;;;29.33;5.30;;;24.30;58.00;;;25.18;41.85;94267.75;5058639;28;20454;-57
2022/04/25 07:16:39;;;;;;;30.90;6.50;;;24.50;56.90;;;25.45;40.64;94272.47;5049892;28;20559;-58
2022/04/25 07:19:08;;;;;;;23.70;5.67;;;24.80;56.10;;;25.71;40.00;94260.19;5056245;28;20545;-59
2022/04/25 07:29:50;;;;;;;28.50;5.27;;;25.70;53.70;;;26.55;39.18;94252.00;5058461;28;20856;-59
2022/04/25 07:32:17;;;;;;;30.30;5.60;;;25.90;53.70;;;26.78;38.84;94258.97;5059218;28;20835;-55
2022/04/25 07:34:47;;;;;;;17.93;4.30;;;26.10;52.90;;;27.05;38.55;94245.47;5054211;28;20526;-57
2022/04/25 07:37:15;;;;;;;34.07;4.70;;;26.40;52.50;;;27.28;37.55;94243.44;5058823;28;20534;-57
2022/04/25 07:39:42;;;;;;;23.97;4.40;;;26.60;50.50;;;27.43;36.64;94246.28;5060671;28;20466;-59
2022/04/25 07:42:09;;;;;;;36.23;4.00;;;26.80;48.80;;;27.60;35.27;94240.69;5054775;28;20490;-57
2022/04/25 07:44:37;;;;;;;27.73;3.93;;;27.00;47.70;;;27.78;35.16;94239.44;5056032;28;20463;-57
2022/04/25 07:47:05;;;;;;;25.13;3.97;;;27.10;47.10;;;27.97;33.76;94239.03;5051604;28;20528;-56
2022/04/25 07:49:33;;;;;;;27.33;3.53;;;27.30;44.60;;;28.02;32.23;94236.31;5052869;28;20536;-56
2022/04/25 07:52:02;;;;;;;36.90;4.67;;;27.40;43.10;;;28.01;31.52;94234.69;5051322;28;20980;-58
2022/04/25 07:54:29;;;;;;;30.30;4.50;;;27.40;42.10;;;28.00;30.77;94241.19;5054122;28;21172;-56
2022/04/25 07:56:57;;;;;;;23.97;4.77;;;27.40;41.00;;;27.94;30.09;94231.41;5054684;28;20458;-57
2022/04/25 07:59:26;;;;;;;28.03;4.30;;;27.40;40.00;;;27.71;30.78;94228.06;5058103;28;20470;-54
2022/04/25 08:01:53;;;;;;;29.53;4.17;;;27.20;40.10;;;27.53;30.90;94219.31;5056375;28;20458;-56
2022/04/25 08:04:21;;;;;;;21.23;4.10;;;27.00;40.10;;;27.63;30.73;94223.16;5056811;28;20450;-54
2022/04/25 08:06:48;;;;;;;22.53;4.90;;;27.10;40.70;;;27.81;30.57;94228.09;5056715;28;20469;-55
2022/04/25 08:09:17;;;;;;;29.37;4.37;;;27.20;40.80;;;28.01;30.39;94227.41;5059882;28;21046;-54
2022/04/25 08:11:44;;;;;;;27.00;3.97;;;27.40;40.30;;;28.31;29.95;94227.78;5057841;28;20486;-56
2022/04/25 08:19:41;;;;;;;20.97;4.90;;;28.10;38.10;;;28.55;28.55;94212.66;5058016;28;20516;-57
2022/04/25 08:22:09;;;;;;;17.17;4.67;;;28.00;38.10;;;28.49;29.34;94208.34;5056887;28;20531;-56
2022/04/25 08:24:38;;;;;;;52.20;5.00;;;28.00;38.10;;;28.59;28.83;94213.75;5058500;28;20546;-56
2022/04/25 08:27:05;;;;;;;37.17;5.43;;;28.00;38.20;;;28.66;29.34;94218.94;5055065;28;20458;-58
2022/04/25 08:29:33;;;;;;;39.73;6.20;;;28.00;38.10;;;28.67;28.74;94215.13;5054064;28;20959;-57
2022/04/25 08:32:00;;;;;;;37.50;4.80;;;28.10;37.80;;;28.75;28.69;94221.91;5057116;28;20489;-57
2022/04/25 08:34:28;;;;;;;32.13;3.43;;;28.20;37.00;;;28.88;28.33;94204.34;5055401;28;20455;-55
2022/04/25 08:36:55;;;;;;;33.40;3.77;;;28.30;36.50;;;29.01;28.28;94208.38;5056093;28;20550;-57
2022/04/25 08:39:22;;;;;;;25.87;4.50;;;28.40;36.90;;;29.21;27.93;94205.66;5058961;28;20465;-57
2022/04/25 08:41:56;;;;;;;34.00;4.17;;;28.50;36.50;;;29.35;27.23;94213.25;5058332;28;20470;-58
2022/04/25 08:44:25;;;;;;;34.93;5.23;;;28.70;34.70;;;29.44;26.39;94206.19;5058535;28;20544;-59
2022/04/25 08:46:54;;;;;;;25.17;5.30;;;28.80;34.40;;;29.56;26.19;94203.16;5055502;28;20446;-58
2022/04/25 08:49:21;;;;;;;35.90;3.63;;;29.00;34.40;;;29.60;26.57;94206.94;5057810;28;20462;-55
2022/04/25 08:51:49;;;;;;;45.97;5.07;;;29.00;34.60;;;29.64;27.21;94197.97;5056466;28;20486;-59
2022/04/25 08:54:16;;;;;;;27.57;5.27;;;29.10;34.60;;;29.65;25.18;94207.75;5056803;28;20792;-57
2022/04/25 08:56:43;;;;;;;14.83;3.07;;;29.10;32.90;;;29.63;25.80;94207.19;5060429;28;20458;-59
2022/04/25 08:59:12;;;;;;;22.40;3.80;;;29.10;33.60;;;29.72;26.11;94195.81;5060862;28;20462;-58
2022/04/25 09:01:41;;;;;;;27.10;3.97;;;29.10;33.90;;;29.93;25.09;94200.09;5058514;28;20478;-58
2022/04/25 09:04:08;;;;;;;33.00;3.47;;;29.30;31.80;;;29.98;25.22;94204.69;5053303;28;20830;-59
2022/04/25 09:06:35;;;;;;;29.13;3.80;;;29.40;32.10;;;29.90;24.88;94199.81;5057664;28;20475;-58
2022/04/25 09:09:03;;;;;;;35.03;4.33;;;29.40;32.10;;;29.67;24.79;94169.53;5058221;28;20469;-54
2022/04/25 09:14:16;;;;;;;23.53;3.90;;;29.10;31.90;;;29.59;24.82;94170.91;5057524;28;20962;-58
2022/04/25 09:16:43;;;;;;;25.03;3.23;;;29.00;32.60;;;29.66;25.34;94184.94;5050806;28;20475;-57
2022/04/25 09:19:10;;;;;;;31.43;3.60;;;29.10;32.10;;;29.64;24.17;94173.59;5048106;28;20451;-59
2022/04/25 09:21:42;;;;;;;26.50;3.63;;;29.00;31.40;;;29.61;24.54;94166.00;5052804;28;20531;-58
2022/04/25 09:24:28;;;;;;;27.57;4.10;;;29.10;31.10;;;29.65;24.24;94167.09;5053564;28;20523;-58
2022/04/25 09:27:18;;;;;;;35.17;4.90;;;29.10;32.00;;;29.99;24.19;94180.00;5051432;28;20474;-55
2022/04/25 09:29:48;;;;;;;23.47;4.57;;;29.30;31.10;;;30.13;24.49;94173.94;5058162;28;20442;-54
2022/04/25 09:32:16;;;;;;;21.90;3.10;;;29.50;31.60;;;30.27;23.46;94168.69;5054192;28;20825;-58
2022/04/25 09:35:03;;;;;;;25.13;2.70;;;29.60;30.00;;;30.35;22.90;94158.06;5054473;28;20461;-58
2022/04/25 09:37:44;;;;;;;17.03;2.77;;;29.70;29.70;;;30.66;22.78;94157.88;5057432;28;20455;-56
2022/04/25 09:40:12;;;;;;;25.33;4.23;;;29.90;30.40;;;30.96;23.35;94150.56;5055877;28;20486;-57
2022/04/25 09:42:39;;;;;;;20.67;3.67;;;30.30;30.50;;;31.18;23.13;94154.72;5056519;28;20473;-57
2022/04/25 09:45:08;;;;;;;21.13;3.00;;;30.50;30.60;;;31.37;21.80;94161.06;5058620;28;20482;-55
2022/04/25 09:47:37;;;;;;;22.80;3.80;;;30.70;28.40;;;31.36;21.89;94159.44;5056547;28;20523;-56
2022/04/25 09:50:06;;;;;;;37.77;3.87;;;30.70;28.70;;;31.26;20.86;94159.53;5059397;28;20478;-56
2022/04/25 09:52:34;;;;;;;15.73;2.70;;;30.70;27.90;;;31.04;21.33;94144.53;5053296;28;20458;-58
2022/04/25 09:55:12;;;;;;;20.10;4.27;;;30.50;27.80;;;30.71;20.73;94151.59;5050946;28;20483;-56
2022/04/25 09:57:40;;;;;;;25.97;3.57;;;30.30;27.50;;;30.33;20.56;94145.88;5052967;28;20540;-57
2022/04/25 10:00:10;;;;;;;23.10;3.20;;;29.90;27.90;;;29.90;21.51;94141.00;5049269;28;20482;-56
2022/04/25 10:02:39;;;;;;;41.03;7.80;;;29.50;27.90;;;29.59;22.77;94143.81;5051062;28;20467;-55
2022/04/25 10:05:15;;;;;;;29.57;3.90;;;29.20;29.30;;;29.59;23.70;94132.97;5049148;28;20929;-55
2022/04/25 10:07:43;;;;;;;20.17;2.73;;;29.00;30.40;;;29.52;22.26;94135.16;5050014;28;20593;-55
2022/04/25 10:10:11;;;;;;;25.40;3.70;;;28.90;28.70;;;29.25;24.55;94146.34;5051598;28;20481;-56
2022/04/25 10:12:38;;;;;;;37.27;3.33;;;28.70;32.10;;;28.96;24.85;94133.38;5050775;28;20455;-55
2022/04/25 10:15:07;;;;;;;23.97;3.50;;;28.50;31.80;;;28.65;24.60;94136.13;5054076;28;20498;-55
2022/04/25 10:17:38;;;;;;;42.93;4.27;;;28.30;31.30;;;28.37;25.00;94129.31;5053365;28;20512;-56
2022/04/25 10:20:07;;;;;;;37.97;5.00;;;28.00;31.80;;;28.13;25.71;94121.72;5055317;28;20531;-55
2022/04/25 10:22:35;;;;;;;21.87;4.23;;;27.70;32.00;;;27.97;26.11;94126.28;5055547;28;20833;-57
2022/04/25 10:25:04;;;;;;;21.90;3.10;;;27.60;33.90;;;27.85;26.18;94128.38;5055580;28;20478;-59
2022/04/25 10:27:33;;;;;;;18.67;4.30;;;27.40;32.80;;;27.67;25.51;94118.88;5053473;28;21071;-57
2022/04/25 10:30:07;;;;;;;18.03;3.27;;;27.30;32.50;;;27.53;25.34;94122.06;5051876;28;21139;-59
2022/04/25 10:32:36;;;;;;;23.73;3.70;;;27.10;32.70;;;27.46;25.68;94121.50;5054931;28;20490;-55
2022/04/25 10:35:04;;;;;;;33.43;4.00;;;27.00;32.10;;;27.40;25.50;94102.84;5053774;28;20512;-58
2022/04/25 10:37:33;;;;;;;21.30;3.77;;;26.90;32.20;;;27.33;25.33;94124.69;5054740;28;20449;-61
2022/04/25 10:40:01;;;;;;;12.17;2.70;;;26.90;32.00;;;27.28;24.93;94124.63;5053284;28;20482;-57
2022/04/25 10:45:13;;;;;;;18.23;2.93;;;26.80;32.60;;;27.34;25.47;94137.09;5052980;28;21084;-59
2022/04/25 10:47:58;;;;;;;24.37;3.63;;;26.80;32.00;;;27.33;25.28;94132.81;5048590;28;20447;-55